createdAt,value
2018-06-08T00:01:32.388Z,81.20
2018-06-08T00:04:02.272Z,81.60
2018-06-08T00:06:32.386Z,81.50
2018-06-08T00:09:02.557Z,80.80
2018-06-08T00:11:32.395Z,80.70
2018-06-08T00:14:02.391Z,81.30
2018-06-08T00:16:32.308Z,82.00
2018-06-08T00:19:02.470Z,82.40
2018-06-08T00:21:32.721Z,81.50
2018-06-08T00:24:02.856Z,82.10
2018-06-08T00:26:32.976Z,82.90
2018-06-08T00:29:03.120Z,82.90
2018-06-08T00:31:34.432Z,81.50
2018-06-08T00:34:04.547Z,81.40
2018-06-08T00:36:34.410Z,81.20
2018-06-08T00:39:06.185Z,81.10
2018-06-08T00:41:36.278Z,81.10
2018-06-08T00:44:06.478Z,81.40
2018-06-08T00:46:36.506Z,80.20
2018-06-08T00:49:06.722Z,79.60
2018-06-08T00:51:36.707Z,79.10
2018-06-08T00:54:06.886Z,79.40
2018-06-08T00:56:53.481Z,79.10
2018-06-08T00:59:23.540Z,79.00
2018-06-08T01:01:53.333Z,79.30
2018-06-08T01:04:23.144Z,79.30
2018-06-08T01:06:53.177Z,79.40
2018-06-08T01:09:23.217Z,78.60
2018-06-08T01:11:53.271Z,79.30
2018-06-08T01:14:38.052Z,79.50
2018-06-08T01:17:08.091Z,79.60
2018-06-08T01:19:38.032Z,80.00
2018-06-08T01:22:07.947Z,80.20
2018-06-08T01:24:37.887Z,80.40
2018-06-08T01:27:08.069Z,79.30
2018-06-08T01:29:38.186Z,79.20
2018-06-08T01:32:08.229Z,80.10
2018-06-08T01:34:38.215Z,79.40
2018-06-08T01:37:08.137Z,79.40
2018-06-08T01:39:38.243Z,79.40
2018-06-08T01:42:08.272Z,79.30
2018-06-08T01:44:38.326Z,79.90
2018-06-08T01:47:08.568Z,79.40
2018-06-08T01:49:38.966Z,79.50
2018-06-08T01:52:08.952Z,80.00
2018-06-08T01:57:08.272Z,81.20
2018-06-08T01:59:38.571Z,81.10
2018-06-08T02:02:08.380Z,80.80
2018-06-08T02:04:38.159Z,80.30
2018-06-08T02:07:08.190Z,80.80
2018-06-08T02:09:38.047Z,81.60
2018-06-08T02:12:08.001Z,81.60
2018-06-08T02:17:08.558Z,81.10
2018-06-08T02:19:39.142Z,81.40
2018-06-08T02:22:09.790Z,81.50
2018-06-08T02:24:41.153Z,82.00
2018-06-08T02:27:10.951Z,81.90
2018-06-08T02:29:41.506Z,82.00
2018-06-08T02:32:12.066Z,81.80
2018-06-08T02:34:42.286Z,81.80
2018-06-08T02:39:43.289Z,82.70
2018-06-08T02:42:13.999Z,82.50
2018-06-08T02:44:44.867Z,82.60
2018-06-08T02:47:15.143Z,84.50
2018-06-08T02:49:45.450Z,83.30
2018-06-08T02:52:15.983Z,84.90
2018-06-08T02:54:46.593Z,84.60
2018-06-08T02:57:16.986Z,83.60
2018-06-08T02:59:47.717Z,83.30
2018-06-08T03:02:17.903Z,82.80
2018-06-08T03:04:48.956Z,82.90
2018-06-08T03:07:18.864Z,82.80
2018-06-08T03:09:49.789Z,82.80
2018-06-08T03:12:20.004Z,82.30
2018-06-08T03:14:50.528Z,82.10
2018-06-08T03:17:21.027Z,83.00
2018-06-08T03:22:21.872Z,82.90
2018-06-08T03:24:52.645Z,82.70
2018-06-08T03:27:23.172Z,82.80
2018-06-08T03:29:53.617Z,83.60
2018-06-08T03:32:24.561Z,83.40
2018-06-08T03:34:57.617Z,83.80
2018-06-08T03:37:27.427Z,83.90
2018-06-08T03:39:57.325Z,83.90
2018-06-08T03:42:27.328Z,83.50
2018-06-08T03:44:57.262Z,84.00
2018-06-08T03:47:27.312Z,83.80
2018-06-08T03:50:19.012Z,84.20
2018-06-08T03:52:49.211Z,84.10
2018-06-08T03:55:19.098Z,84.10
2018-06-08T03:57:49.031Z,83.50
2018-06-08T04:00:19.303Z,83.80
2018-06-08T04:02:49.263Z,84.60
2018-06-08T04:05:19.561Z,85.50
2018-06-08T04:07:49.438Z,85.70
2018-06-08T04:10:19.922Z,85.40
2018-06-08T04:12:50.149Z,85.60
2018-06-08T04:15:20.255Z,84.80
2018-06-08T04:17:50.576Z,84.80
2018-06-08T04:22:50.163Z,85.10
2018-06-08T04:25:20.148Z,85.50
2018-06-08T04:27:49.959Z,85.50
2018-06-08T04:30:20.241Z,85.20
2018-06-08T04:32:50.438Z,86.00
2018-06-08T04:35:21.053Z,86.00
2018-06-08T04:37:50.997Z,86.60
2018-06-08T04:40:21.260Z,87.30
2018-06-08T04:42:51.503Z,88.40
2018-06-08T04:45:21.667Z,87.70
2018-06-08T04:47:51.937Z,87.40
2018-06-08T04:50:21.827Z,88.40
2018-06-08T04:52:51.720Z,89.10
2018-06-08T04:55:21.875Z,88.90
2018-06-08T04:57:51.928Z,88.00
2018-06-08T05:00:22.237Z,87.80
2018-06-08T05:02:52.124Z,87.50
2018-06-08T05:05:22.288Z,87.10
2018-06-08T05:07:52.452Z,87.00
2018-06-08T05:10:22.573Z,87.00
2018-06-08T05:12:52.859Z,87.80
2018-06-08T05:15:22.899Z,88.70
2018-06-08T05:17:52.970Z,88.80
2018-06-08T05:20:23.430Z,88.20
2018-06-08T05:22:53.585Z,88.20
2018-06-08T05:25:23.380Z,88.00
2018-06-08T05:27:53.543Z,87.80
2018-06-08T05:30:25.363Z,87.10
2018-06-08T05:32:55.558Z,86.00
2018-06-08T05:35:25.538Z,87.20
2018-06-08T05:37:55.463Z,87.70
2018-06-08T05:40:25.724Z,88.20
2018-06-08T05:42:56.297Z,88.20
2018-06-08T05:45:26.335Z,87.50
2018-06-08T05:47:56.734Z,87.80
2018-06-08T05:50:26.699Z,88.10
2018-06-08T05:52:56.449Z,87.30
2018-06-08T05:55:26.389Z,85.90
2018-06-08T05:57:56.602Z,86.70
2018-06-08T06:00:26.690Z,87.20
2018-06-08T06:02:57.149Z,86.30
2018-06-08T06:05:28.389Z,84.70
2018-06-08T06:07:58.417Z,83.90
2018-06-08T06:10:29.420Z,84.10
2018-06-08T06:12:59.505Z,84.70
2018-06-08T06:15:30.109Z,85.20
2018-06-08T06:18:01.311Z,84.70
2018-06-08T06:20:31.404Z,84.90
2018-06-08T06:23:01.595Z,85.40
2018-06-08T06:25:32.497Z,85.60
2018-06-08T06:28:02.618Z,86.30
2018-06-08T06:30:32.908Z,85.50
2018-06-08T06:33:03.153Z,84.90
2018-06-08T06:35:33.359Z,84.90
2018-06-08T06:38:03.397Z,83.70
2018-06-08T06:40:33.458Z,83.50
2018-06-08T06:43:03.823Z,82.80
2018-06-08T06:45:34.152Z,81.70
2018-06-08T06:48:04.373Z,80.40
2018-06-08T06:50:34.359Z,80.30
2018-06-08T06:53:04.508Z,80.40
2018-06-08T06:55:34.933Z,78.00
2018-06-08T06:58:05.165Z,76.60
2018-06-08T07:00:35.274Z,76.00
2018-06-08T07:03:05.368Z,75.20
2018-06-08T07:05:35.680Z,74.80
2018-06-08T07:08:05.464Z,76.90
2018-06-08T07:10:35.586Z,77.30
2018-06-08T07:13:05.424Z,77.10
2018-06-08T07:15:35.503Z,71.60
2018-06-08T07:18:05.580Z,72.10
2018-06-08T07:20:35.829Z,72.60
2018-06-08T07:23:05.987Z,73.60
2018-06-08T07:25:35.990Z,73.60
2018-06-08T07:28:06.017Z,73.00
2018-06-08T07:30:36.078Z,74.10
2018-06-08T07:33:06.090Z,74.70
2018-06-08T07:35:36.393Z,75.20
2018-06-08T07:38:06.393Z,74.30
2018-06-08T07:40:36.409Z,75.00
2018-06-08T07:43:06.474Z,79.70
2018-06-08T07:45:36.557Z,82.10
2018-06-08T07:50:36.953Z,83.50
2018-06-08T07:53:07.444Z,84.50
2018-06-08T07:55:37.480Z,85.80
2018-06-08T08:03:06.626Z,88.20
2018-06-08T08:05:36.544Z,86.40
2018-06-08T08:08:07.373Z,85.80
2018-06-08T08:10:37.660Z,84.20
2018-06-08T08:13:07.636Z,84.30
2018-06-08T08:15:37.788Z,85.00
2018-06-08T08:18:07.980Z,85.60
2018-06-08T08:20:38.047Z,87.10
2018-06-08T08:23:07.849Z,89.30
2018-06-08T08:25:37.909Z,90.60
2018-06-08T08:28:07.830Z,91.10
2018-06-08T08:30:37.746Z,90.20
2018-06-08T08:33:07.580Z,90.60
2018-06-08T08:35:37.858Z,91.00
2018-06-08T08:38:07.932Z,91.20
2018-06-08T08:43:07.699Z,90.70
2018-06-08T08:45:37.671Z,91.40
2018-06-08T08:48:07.666Z,91.50
2018-06-08T08:50:37.572Z,91.50
2018-06-08T08:53:07.943Z,91.50
2018-06-08T08:55:37.960Z,91.70
2018-06-08T08:58:08.081Z,91.80
2018-06-08T09:00:38.165Z,91.60
2018-06-08T09:03:08.041Z,91.10
2018-06-08T09:05:37.850Z,91.30
2018-06-08T09:08:07.964Z,91.30
2018-06-08T09:10:38.519Z,91.30
2018-06-08T09:13:09.708Z,91.00
2018-06-08T09:15:39.548Z,89.30
2018-06-08T09:18:10.125Z,89.40
2018-06-08T09:20:40.513Z,89.60
2018-06-08T09:23:11.480Z,88.20
2018-06-08T09:25:41.814Z,89.60
2018-06-08T09:30:43.135Z,89.60
2018-06-08T09:33:13.552Z,90.10
2018-06-08T09:35:44.236Z,89.60
2018-06-08T09:38:14.547Z,88.50
2018-06-08T09:40:44.876Z,89.50
2018-06-08T09:43:15.619Z,90.10
2018-06-08T09:45:46.126Z,90.00
2018-06-08T09:48:16.771Z,89.40
2018-06-08T09:50:47.539Z,89.00
2018-06-08T09:53:17.754Z,88.70
2018-06-08T09:55:48.815Z,87.90
2018-06-08T09:58:18.971Z,87.50
2018-06-08T10:00:49.894Z,88.50
2018-06-08T10:03:20.007Z,88.60
2018-06-08T10:05:50.684Z,87.10
2018-06-08T10:08:20.978Z,89.10
2018-06-08T10:10:51.685Z,89.60
2018-06-08T10:13:22.283Z,88.40
2018-06-08T10:15:52.775Z,89.00
2018-06-08T10:18:23.473Z,88.50
2018-06-08T10:20:53.754Z,88.80
2018-06-08T10:23:24.191Z,89.30
2018-06-08T10:25:54.745Z,90.00
2018-06-08T10:28:25.422Z,90.10
2018-06-08T10:30:56.319Z,90.40
2018-06-08T10:33:26.950Z,90.80
2018-06-08T10:35:58.019Z,90.60
2018-06-08T10:38:28.003Z,90.60
2018-06-08T10:40:59.205Z,90.30
2018-06-08T10:43:28.992Z,90.10
2018-06-08T10:45:59.629Z,89.90
2018-06-08T10:48:30.605Z,89.70
2018-06-08T10:51:01.005Z,89.70
2018-06-08T10:53:31.783Z,90.30
2018-06-08T10:56:02.490Z,88.70
2018-06-08T10:58:32.684Z,89.00
2018-06-08T11:01:02.792Z,90.10
2018-06-08T11:03:32.803Z,88.90
2018-06-08T11:06:02.794Z,87.90
2018-06-08T11:08:32.950Z,89.10
2018-06-08T11:11:03.182Z,88.60
2018-06-08T11:13:33.229Z,89.20
2018-06-08T11:16:03.415Z,89.00
2018-06-08T11:18:33.451Z,88.40
2018-06-08T11:21:03.399Z,87.30
2018-06-08T11:23:33.419Z,88.20
2018-06-08T11:26:03.654Z,88.20
2018-06-08T11:28:33.561Z,87.20
2018-06-08T11:31:03.423Z,88.30
2018-06-08T11:33:33.462Z,86.90
2018-06-08T11:36:03.488Z,86.40
2018-06-08T11:38:33.534Z,85.00
2018-06-08T11:41:03.568Z,86.80
2018-06-08T11:43:34.075Z,86.00
2018-06-08T11:46:04.267Z,87.00
2018-06-08T11:48:34.545Z,87.10
2018-06-08T11:51:04.802Z,86.70
2018-06-08T11:53:34.568Z,84.30
2018-06-08T11:56:04.856Z,85.30
2018-06-08T11:58:34.907Z,83.80
2018-06-08T12:01:04.722Z,83.60
2018-06-08T12:03:34.737Z,85.00
2018-06-08T12:06:04.974Z,84.90
2018-06-08T12:08:35.181Z,84.80
2018-06-08T12:11:05.299Z,82.90
2018-06-08T12:13:35.550Z,83.10
2018-06-08T12:16:05.596Z,83.30
2018-06-08T12:18:35.786Z,84.40
2018-06-08T12:21:05.891Z,84.70
2018-06-08T12:23:36.364Z,84.30
2018-06-08T12:26:06.519Z,83.60
2018-06-08T12:28:36.606Z,81.30
2018-06-08T12:31:06.869Z,81.10
2018-06-08T12:33:37.151Z,79.00
2018-06-08T12:36:07.314Z,77.50
2018-06-08T12:38:37.517Z,78.50
2018-06-08T12:41:07.628Z,77.60
2018-06-08T12:43:37.804Z,79.70
2018-06-08T12:46:08.061Z,79.90
2018-06-08T12:48:38.189Z,77.50
2018-06-08T12:51:08.494Z,79.10
2018-06-08T12:53:38.631Z,79.20
2018-06-08T12:56:08.914Z,78.80
2018-06-08T13:01:09.263Z,76.60
2018-06-08T13:03:39.410Z,76.40
2018-06-08T13:06:09.723Z,75.30
2018-06-08T13:08:39.873Z,74.20
2018-06-08T13:11:10.068Z,73.00
2018-06-08T13:13:40.105Z,75.60
2018-06-08T13:16:10.297Z,75.20
2018-06-08T13:18:40.132Z,76.60
2018-06-08T13:21:10.509Z,75.40
2018-06-08T13:23:40.405Z,74.10
2018-06-08T13:26:10.535Z,74.30
2018-06-08T13:28:40.596Z,73.80
2018-06-08T13:31:10.624Z,74.20
2018-06-08T13:33:40.909Z,75.10
2018-06-08T13:36:10.959Z,71.00
2018-06-08T13:38:41.001Z,74.00
2018-06-08T13:41:11.265Z,75.70
2018-06-08T13:43:41.405Z,75.30
2018-06-08T13:46:28.449Z,75.80
2018-06-08T13:48:58.596Z,72.50
2018-06-08T13:51:28.811Z,73.30
2018-06-08T13:53:58.886Z,69.60
2018-06-08T13:56:29.148Z,70.80
2018-06-08T13:58:59.377Z,71.00
2018-06-08T14:01:29.607Z,72.30
2018-06-08T14:03:59.930Z,70.90
2018-06-08T14:06:31.069Z,70.80
2018-06-08T14:09:01.238Z,69.70
2018-06-08T14:11:31.369Z,67.80
2018-06-08T14:14:01.649Z,67.80
2018-06-08T14:16:31.680Z,65.60
2018-06-08T14:19:02.083Z,62.10
2018-06-08T14:21:32.224Z,63.00
2018-06-08T14:24:02.306Z,60.60
2018-06-08T14:26:32.490Z,60.90
2018-06-08T14:29:02.824Z,60.80
2018-06-08T14:31:33.025Z,60.40
2018-06-08T14:34:03.262Z,59.00
2018-06-08T14:39:04.215Z,59.60
2018-06-08T14:41:34.639Z,57.90
2018-06-08T14:44:04.933Z,57.10
2018-06-08T14:46:35.550Z,55.80
2018-06-08T14:49:06.042Z,56.10
2018-06-08T14:51:36.290Z,58.50
2018-06-08T14:54:06.748Z,58.20
2018-06-08T14:56:36.813Z,56.40
2018-06-08T14:59:07.156Z,57.60
2018-06-08T15:01:37.222Z,57.70
2018-06-08T15:04:07.677Z,59.00
2018-06-08T15:06:38.181Z,60.40
2018-06-08T15:09:09.200Z,60.80
2018-06-08T15:11:39.399Z,60.70
2018-06-08T15:14:09.976Z,61.50
2018-06-08T15:16:40.264Z,61.60
2018-06-08T15:19:10.600Z,61.20
2018-06-08T15:21:40.685Z,59.60
2018-06-08T15:24:10.762Z,58.40
2018-06-08T15:26:41.020Z,58.60
2018-06-08T15:29:11.176Z,58.30
2018-06-08T15:31:41.366Z,58.60
2018-06-08T15:34:11.648Z,58.50
2018-06-08T15:36:41.876Z,59.50
2018-06-08T15:39:11.977Z,58.30
2018-06-08T15:41:42.290Z,59.10
2018-06-08T15:44:12.517Z,59.40
2018-06-08T15:46:42.686Z,57.80
2018-06-08T15:49:13.009Z,56.80
2018-06-08T15:51:43.118Z,56.80
2018-06-08T15:54:13.441Z,57.00
2018-06-08T15:56:43.603Z,56.80
2018-06-08T15:59:14.117Z,56.90
2018-06-08T16:01:44.629Z,57.10
2018-06-08T16:04:14.958Z,55.60
2018-06-08T16:06:45.166Z,54.90
2018-06-08T16:09:15.242Z,54.10
2018-06-08T16:11:45.558Z,54.60
2018-06-08T16:14:15.927Z,53.20
2018-06-08T16:16:46.333Z,52.80
2018-06-08T16:19:16.615Z,51.50
2018-06-08T16:21:46.919Z,51.00
2018-06-08T16:24:17.496Z,52.00
2018-06-08T16:26:47.631Z,51.90
2018-06-08T16:29:17.815Z,52.70
2018-06-08T16:31:48.142Z,52.80
2018-06-08T16:34:18.236Z,53.00
2018-06-08T16:36:48.669Z,53.80
2018-06-08T16:41:49.085Z,57.10
2018-06-08T16:44:19.211Z,57.80
2018-06-08T16:46:49.491Z,59.50
2018-06-08T16:49:19.590Z,58.70
2018-06-08T16:51:49.726Z,58.70
2018-06-08T16:54:20.050Z,60.40
2018-06-08T16:56:50.246Z,61.30
2018-06-08T16:59:20.395Z,60.60
2018-06-08T17:01:50.486Z,61.00
2018-06-08T17:04:20.653Z,62.20
2018-06-08T17:06:50.797Z,61.70
2018-06-08T17:09:21.128Z,63.70
2018-06-08T17:11:51.319Z,63.90
2018-06-08T17:14:22.028Z,63.40
2018-06-08T17:16:52.478Z,62.70
2018-06-08T17:19:22.804Z,59.40
2018-06-08T17:21:52.864Z,58.60
2018-06-08T17:24:22.838Z,57.70
2018-06-08T17:26:53.532Z,56.80
2018-06-08T17:29:23.632Z,58.10
2018-06-08T17:31:53.799Z,59.10
2018-06-08T17:34:24.177Z,58.40
2018-06-08T17:36:54.189Z,59.10
2018-06-08T17:39:24.523Z,59.80
2018-06-08T17:41:54.712Z,60.40
2018-06-08T17:44:24.777Z,60.70
2018-06-08T17:46:54.919Z,60.90
2018-06-08T17:49:25.143Z,62.10
2018-06-08T17:51:55.598Z,62.60
2018-06-08T17:54:25.832Z,62.60
2018-06-08T17:56:56.027Z,63.00
2018-06-08T17:59:26.392Z,62.70
2018-06-08T18:01:56.844Z,63.10
2018-06-08T18:04:27.184Z,63.50
2018-06-08T18:06:57.537Z,63.80
2018-06-08T18:09:27.916Z,63.60
2018-06-08T18:11:58.143Z,63.60
2018-06-08T18:14:28.061Z,63.70
2018-06-08T18:16:58.363Z,64.00
2018-06-08T18:19:28.519Z,64.40
2018-06-08T18:21:58.739Z,64.20
2018-06-08T18:24:28.945Z,64.20
2018-06-08T18:26:59.183Z,65.30
2018-06-08T18:29:29.577Z,65.70
2018-06-08T18:31:59.779Z,65.10
2018-06-08T18:34:30.136Z,65.00
2018-06-08T18:37:00.223Z,65.20
2018-06-08T18:39:30.327Z,65.90
2018-06-08T18:42:00.285Z,65.20
2018-06-08T18:44:30.377Z,65.30
2018-06-08T18:47:00.759Z,66.00
2018-06-08T18:49:31.032Z,66.30
2018-06-08T18:52:01.102Z,66.70
2018-06-08T18:54:31.438Z,66.50
2018-06-08T18:57:01.763Z,66.80
2018-06-08T18:59:31.957Z,67.40
2018-06-08T19:02:04.114Z,67.10
2018-06-08T19:07:04.250Z,67.60
2018-06-08T19:09:34.466Z,67.20
2018-06-08T19:12:04.902Z,68.80
2018-06-08T19:14:35.334Z,68.30
2018-06-08T19:17:05.869Z,68.30
2018-06-08T19:19:36.217Z,68.50
2018-06-08T19:22:06.622Z,69.50
2018-06-08T19:24:36.833Z,70.20
2018-06-08T19:27:07.108Z,69.90
2018-06-08T19:29:37.665Z,69.60
2018-06-08T19:32:07.964Z,71.20
2018-06-08T19:34:38.340Z,72.60
2018-06-08T19:37:08.449Z,73.20
2018-06-08T19:39:38.558Z,72.60
2018-06-08T19:42:08.783Z,73.70
2018-06-08T19:44:38.888Z,73.90
2018-06-08T19:47:09.262Z,74.20
2018-06-08T19:49:39.450Z,74.30
2018-06-08T19:52:09.765Z,74.90
2018-06-08T19:54:40.084Z,75.00
2018-06-08T19:57:10.244Z,75.10
2018-06-08T19:59:40.657Z,75.50
2018-06-08T20:02:10.717Z,76.90
2018-06-08T20:04:41.396Z,76.70
2018-06-08T20:07:11.822Z,77.00
2018-06-08T20:09:41.992Z,78.00
2018-06-08T20:12:12.314Z,77.80
2018-06-08T20:14:42.489Z,77.10
2018-06-08T20:17:12.598Z,77.10
2018-06-08T20:19:42.771Z,76.60
2018-06-08T20:24:43.693Z,75.20
2018-06-08T20:27:13.803Z,74.90
2018-06-08T20:29:43.826Z,74.50
2018-06-08T20:32:13.986Z,73.60
2018-06-08T20:34:43.994Z,72.50
2018-06-08T20:37:14.260Z,72.10
2018-06-08T20:39:44.243Z,72.00
2018-06-08T20:42:14.407Z,72.70
2018-06-08T20:44:44.548Z,74.10
2018-06-08T20:47:14.613Z,73.20
2018-06-08T20:49:45.026Z,74.00
2018-06-08T20:52:15.380Z,74.60
2018-06-08T20:54:46.075Z,75.00
2018-06-08T20:57:27.246Z,75.40
2018-06-08T20:59:57.412Z,75.60
2018-06-08T21:02:27.729Z,77.40
2018-06-08T21:04:57.933Z,76.90
2018-06-08T21:07:28.184Z,77.20
2018-06-08T21:09:58.603Z,77.20
2018-06-08T21:12:28.590Z,77.20
2018-06-08T21:14:58.599Z,77.40
2018-06-08T21:17:28.994Z,77.50
2018-06-08T21:19:59.211Z,78.00
2018-06-08T21:22:32.132Z,78.10
2018-06-08T21:25:02.004Z,78.00
2018-06-08T21:27:31.896Z,78.10
2018-06-08T21:30:01.794Z,78.50
2018-06-08T21:32:31.936Z,78.60
2018-06-08T21:35:01.889Z,78.90
2018-06-08T21:37:31.916Z,78.70
2018-06-08T21:40:02.509Z,78.80
2018-06-08T21:42:32.900Z,78.80
2018-06-08T21:45:03.083Z,79.60
2018-06-08T21:47:33.179Z,79.10
2018-06-08T21:50:03.337Z,79.50
2018-06-08T21:52:33.491Z,79.60
2018-06-08T21:57:33.923Z,79.60
2018-06-08T22:00:04.098Z,79.30
2018-06-08T22:02:34.425Z,79.60
2018-06-08T22:05:04.707Z,79.50
2018-06-08T22:07:34.984Z,79.50
2018-06-08T22:10:05.228Z,79.70
2018-06-08T22:12:35.241Z,80.20
2018-06-08T22:15:05.564Z,80.30
2018-06-08T22:17:36.431Z,80.40
2018-06-08T22:20:06.602Z,79.80
2018-06-08T22:22:36.919Z,80.50
2018-06-08T22:25:07.815Z,80.20
2018-06-08T22:27:38.736Z,80.20
2018-06-08T22:30:09.126Z,80.70
2018-06-08T22:32:39.200Z,80.80
2018-06-08T22:35:09.711Z,80.80
2018-06-08T22:37:40.281Z,81.00
2018-06-08T22:40:10.665Z,81.00
2018-06-08T22:42:41.489Z,82.20
2018-06-08T22:45:11.712Z,82.00
2018-06-08T22:47:42.752Z,82.20
2018-06-08T22:50:12.739Z,82.30
2018-06-08T22:52:43.685Z,82.00
2018-06-08T22:55:13.813Z,81.70
2018-06-08T22:57:44.432Z,81.90
2018-06-08T23:00:19.511Z,81.70
2018-06-08T23:02:49.763Z,81.70
2018-06-08T23:05:19.504Z,82.80
2018-06-08T23:07:49.507Z,83.00
2018-06-08T23:10:19.434Z,84.30
2018-06-08T23:12:49.568Z,84.20
2018-06-08T23:17:49.277Z,84.20
2018-06-08T23:20:19.325Z,83.70
2018-06-08T23:22:49.599Z,84.50
2018-06-08T23:25:19.714Z,84.30
2018-06-08T23:27:50.634Z,84.50
2018-06-08T23:30:20.933Z,84.80
2018-06-08T23:32:51.563Z,85.10
2018-06-08T23:35:22.483Z,85.40
2018-06-08T23:37:52.614Z,86.10
2018-06-08T23:40:23.263Z,86.20
2018-06-08T23:42:54.007Z,85.90
2018-06-08T23:45:24.374Z,85.20
2018-06-08T23:47:55.234Z,84.80
2018-06-08T23:50:25.766Z,85.90
2018-06-08T23:52:55.607Z,85.90
2018-06-08T23:55:26.532Z,85.80
2018-06-08T23:57:56.651Z,85.70
